sensor_id;sensor_type;location;lat;lon;timestamp;P1;P4;P2;P0;N10;N4;N25;N1;N05;TS
43196;SPS30;28816;49.852;18.282;2023-09-07T00:04:37;10.390000;;10.340000;9.880000;;;;;;
43196;SPS30;28816;49.852;18.282;2023-09-07T00:09:39;10.500000;;10.460000;9.880000;;;;;;
43196;SPS30;28816;49.852;18.282;2023-09-07T00:14:41;11.270000;;11.280000;10.390000;;;;;;
43196;SPS30;28816;49.852;18.282;2023-09-07T00:19:42;10.630000;;10.620000;10.080000;;;;;;
43196;SPS30;28816;49.852;18.282;2023-09-07T00:24:45;9.820000;;9.830000;9.280000;;;;;;
43196;SPS30;28816;49.852;18.282;2023-09-07T00:29:48;11.850000;;11.810000;11.220000;;;;;;
43196;SPS30;28816;49.852;18.282;2023-09-07T00:34:50;10.930000;;11.010000;10.310000;;;;;;
43196;SPS30;28816;49.852;18.282;2023-09-07T00:39:51;10.950000;;10.950000;10.230000;;;;;;
43196;SPS30;28816;49.852;18.282;2023-09-07T00:44:54;10.240000;;10.280000;9.700000;;;;;;
43196;SPS30;28816;49.852;18.282;2023-09-07T00:49:56;10.700000;;10.770000;10.010000;;;;;;
43196;SPS30;28816;49.852;18.282;2023-09-07T00:54:59;10.870000;;10.750000;10.250000;;;;;;
43196;SPS30;28816;49.852;18.282;2023-09-07T01:00:01;10.770000;;10.750000;10.190000;;;;;;
43196;SPS30;28816;49.852;18.282;2023-09-07T01:05:04;10.640000;;10.690000;10.010000;;;;;;
43196;SPS30;28816;49.852;18.282;2023-09-07T01:10:06;9.830000;;9.800000;9.260000;;;;;;
43196;SPS30;28816;49.852;18.282;2023-09-07T01:15:09;11.220000;;11.220000;10.580000;;;;;;
43196;SPS30;28816;49.852;18.282;2023-09-07T01:20:12;10.810000;;10.860000;10.180000;;;;;;
43196;SPS30;28816;49.852;18.282;2023-09-07T01:25:16;10.570000;;10.590000;9.990000;;;;;;
43196;SPS30;28816;49.852;18.282;2023-09-07T01:30:18;10.870000;;10.910000;10.190000;;;;;;
43196;SPS30;28816;49.852;18.282;2023-09-07T01:35:21;11.030000;;11.050000;10.400000;;;;;;
43196;SPS30;28816;49.852;18.282;2023-09-07T01:40:24;10.100000;;10.140000;9.520000;;;;;;
43196;SPS30;28816;49.852;18.282;2023-09-07T01:45:26;10.630000;;10.620000;10.050000;;;;;;
43196;SPS30;28816;49.852;18.282;2023-09-07T01:50:28;10.350000;;10.350000;9.750000;;;;;;
43196;SPS30;28816;49.852;18.282;2023-09-07T01:55:30;10.600000;;10.610000;10.020000;;;;;;
43196;SPS30;28816;49.852;18.282;2023-09-07T02:00:32;10.780000;;10.800000;10.000000;;;;;;
43196;SPS30;28816;49.852;18.282;2023-09-07T02:05:36;9.640000;;9.630000;9.150000;;;;;;
43196;SPS30;28816;49.852;18.282;2023-09-07T02:10:39;9.800000;;9.680000;9.360000;;;;;;
43196;SPS30;28816;49.852;18.282;2023-09-07T02:15:41;10.730000;;10.680000;10.180000;;;;;;
43196;SPS30;28816;49.852;18.282;2023-09-07T02:20:42;11.560000;;11.560000;10.950000;;;;;;
43196;SPS30;28816;49.852;18.282;2023-09-07T02:25:44;13.740000;;13.610000;13.040000;;;;;;
43196;SPS30;28816;49.852;18.282;2023-09-07T02:30:46;12.320000;;12.340000;11.590000;;;;;;
43196;SPS30;28816;49.852;18.282;2023-09-07T02:35:48;12.410000;;12.490000;11.630000;;;;;;
43196;SPS30;28816;49.852;18.282;2023-09-07T02:40:50;12.490000;;12.390000;11.790000;;;;;;
43196;SPS30;28816;49.852;18.282;2023-09-07T02:45:52;12.790000;;12.720000;11.930000;;;;;;
43196;SPS30;28816;49.852;18.282;2023-09-07T02:50:54;12.140000;;12.190000;11.430000;;;;;;
43196;SPS30;28816;49.852;18.282;2023-09-07T02:55:56;11.100000;;11.080000;10.480000;;;;;;
43196;SPS30;28816;49.852;18.282;2023-09-07T03:00:57;12.760000;;12.780000;12.010000;;;;;;
43196;SPS30;28816;49.852;18.282;2023-09-07T03:06:00;11.540000;;11.520000;10.890000;;;;;;
43196;SPS30;28816;49.852;18.282;2023-09-07T03:11:08;11.650000;;11.640000;11.010000;;;;;;
43196;SPS30;28816;49.852;18.282;2023-09-07T03:16:10;11.440000;;11.500000;10.770000;;;;;;
43196;SPS30;28816;49.852;18.282;2023-09-07T03:21:13;10.770000;;10.720000;10.140000;;;;;;
43196;SPS30;28816;49.852;18.282;2023-09-07T03:26:14;10.010000;;9.890000;9.530000;;;;;;
43196;SPS30;28816;49.852;18.282;2023-09-07T03:31:16;10.600000;;10.540000;10.080000;;;;;;
43196;SPS30;28816;49.852;18.282;2023-09-07T03:36:18;10.140000;;10.090000;9.650000;;;;;;
43196;SPS30;28816;49.852;18.282;2023-09-07T03:41:20;9.980000;;9.910000;9.400000;;;;;;
43196;SPS30;28816;49.852;18.282;2023-09-07T03:46:22;10.460000;;10.520000;9.910000;;;;;;
43196;SPS30;28816;49.852;18.282;2023-09-07T03:51:23;10.930000;;10.870000;10.330000;;;;;;
43196;SPS30;28816;49.852;18.282;2023-09-07T03:56:25;10.700000;;10.640000;9.970000;;;;;;
43196;SPS30;28816;49.852;18.282;2023-09-07T04:01:28;10.880000;;10.970000;10.170000;;;;;;
43196;SPS30;28816;49.852;18.282;2023-09-07T04:06:29;11.310000;;11.390000;10.620000;;;;;;
43196;SPS30;28816;49.852;18.282;2023-09-07T04:11:31;11.830000;;11.890000;11.130000;;;;;;
43196;SPS30;28816;49.852;18.282;2023-09-07T04:16:34;11.410000;;11.380000;10.830000;;;;;;
43196;SPS30;28816;49.852;18.282;2023-09-07T04:21:36;9.420000;;9.460000;8.880000;;;;;;
43196;SPS30;28816;49.852;18.282;2023-09-07T04:26:37;11.410000;;11.410000;10.820000;;;;;;
43196;SPS30;28816;49.852;18.282;2023-09-07T04:31:39;12.020000;;12.100000;11.310000;;;;;;
43196;SPS30;28816;49.852;18.282;2023-09-07T04:36:41;11.610000;;11.640000;10.990000;;;;;;
43196;SPS30;28816;49.852;18.282;2023-09-07T04:41:43;12.540000;;12.460000;11.780000;;;;;;
43196;SPS30;28816;49.852;18.282;2023-09-07T04:46:45;12.440000;;12.350000;11.710000;;;;;;
43196;SPS30;28816;49.852;18.282;2023-09-07T04:51:48;12.240000;;12.250000;11.490000;;;;;;
43196;SPS30;28816;49.852;18.282;2023-09-07T04:56:52;12.480000;;12.420000;11.770000;;;;;;
43196;SPS30;28816;49.852;18.282;2023-09-07T05:01:54;11.990000;;11.930000;11.260000;;;;;;
43196;SPS30;28816;49.852;18.282;2023-09-07T05:06:58;12.010000;;11.920000;11.360000;;;;;;
43196;SPS30;28816;49.852;18.282;2023-09-07T05:12:00;11.670000;;11.680000;11.010000;;;;;;
43196;SPS30;28816;49.852;18.282;2023-09-07T05:17:03;11.340000;;11.300000;10.760000;;;;;;
43196;SPS30;28816;49.852;18.282;2023-09-07T05:22:06;11.620000;;11.540000;10.930000;;;;;;
43196;SPS30;28816;49.852;18.282;2023-09-07T05:27:07;10.330000;;10.260000;9.750000;;;;;;
43196;SPS30;28816;49.852;18.282;2023-09-07T05:32:09;10.700000;;10.700000;10.070000;;;;;;
43196;SPS30;28816;49.852;18.282;2023-09-07T05:37:12;10.750000;;10.770000;10.120000;;;;;;
43196;SPS30;28816;49.852;18.282;2023-09-07T05:42:14;10.250000;;10.220000;9.770000;;;;;;
43196;SPS30;28816;49.852;18.282;2023-09-07T05:47:16;9.840000;;9.820000;9.300000;;;;;;
43196;SPS30;28816;49.852;18.282;2023-09-07T05:52:18;9.550000;;9.550000;8.970000;;;;;;
43196;SPS30;28816;49.852;18.282;2023-09-07T05:57:21;10.140000;;10.200000;9.550000;;;;;;
43196;SPS30;28816;49.852;18.282;2023-09-07T06:02:24;11.260000;;11.380000;10.560000;;;;;;
43196;SPS30;28816;49.852;18.282;2023-09-07T06:07:25;10.830000;;10.830000;10.120000;;;;;;
43196;SPS30;28816;49.852;18.282;2023-09-07T06:12:28;11.320000;;11.350000;10.680000;;;;;;
43196;SPS30;28816;49.852;18.282;2023-09-07T06:17:31;10.900000;;10.840000;10.330000;;;;;;
43196;SPS30;28816;49.852;18.282;2023-09-07T06:22:33;11.810000;;11.740000;11.120000;;;;;;
43196;SPS30;28816;49.852;18.282;2023-09-07T06:27:36;12.150000;;12.140000;11.520000;;;;;;
43196;SPS30;28816;49.852;18.282;2023-09-07T06:32:38;11.330000;;11.200000;10.730000;;;;;;
43196;SPS30;28816;49.852;18.282;2023-09-07T06:37:41;13.580000;;13.560000;12.860000;;;;;;
43196;SPS30;28816;49.852;18.282;2023-09-07T06:42:43;13.350000;;13.250000;12.600000;;;;;;
43196;SPS30;28816;49.852;18.282;2023-09-07T06:47:45;12.340000;;12.270000;11.680000;;;;;;
43196;SPS30;28816;49.852;18.282;2023-09-07T06:52:49;10.530000;;10.540000;9.980000;;;;;;
43196;SPS30;28816;49.852;18.282;2023-09-07T06:57:51;11.880000;;11.810000;11.070000;;;;;;
43196;SPS30;28816;49.852;18.282;2023-09-07T07:02:53;12.020000;;11.980000;11.390000;;;;;;
43196;SPS30;28816;49.852;18.282;2023-09-07T07:07:56;9.340000;;9.290000;8.890000;;;;;;
43196;SPS30;28816;49.852;18.282;2023-09-07T07:12:58;10.570000;;10.460000;10.090000;;;;;;
43196;SPS30;28816;49.852;18.282;2023-09-07T07:18:00;10.260000;;10.150000;9.700000;;;;;;
43196;SPS30;28816;49.852;18.282;2023-09-07T07:23:03;10.450000;;10.390000;9.980000;;;;;;
43196;SPS30;28816;49.852;18.282;2023-09-07T07:28:05;9.850000;;9.780000;9.390000;;;;;;
43196;SPS30;28816;49.852;18.282;2023-09-07T07:33:07;9.920000;;9.890000;9.400000;;;;;;
43196;SPS30;28816;49.852;18.282;2023-09-07T07:38:10;10.000000;;10.020000;9.400000;;;;;;
43196;SPS30;28816;49.852;18.282;2023-09-07T07:43:12;9.390000;;9.390000;8.870000;;;;;;
43196;SPS30;28816;49.852;18.282;2023-09-07T07:48:15;8.220000;;8.170000;7.820000;;;;;;
43196;SPS30;28816;49.852;18.282;2023-09-07T07:53:17;8.370000;;8.390000;7.870000;;;;;;
43196;SPS30;28816;49.852;18.282;2023-09-07T07:58:19;9.830000;;9.830000;9.250000;;;;;;
43196;SPS30;28816;49.852;18.282;2023-09-07T08:03:21;7.660000;;7.690000;7.210000;;;;;;
43196;SPS30;28816;49.852;18.282;2023-09-07T08:08:24;7.940000;;7.830000;7.580000;;;;;;
43196;SPS30;28816;49.852;18.282;2023-09-07T08:13:26;7.630000;;7.580000;7.230000;;;;;;
43196;SPS30;28816;49.852;18.282;2023-09-07T08:18:29;8.280000;;8.320000;7.800000;;;;;;
43196;SPS30;28816;49.852;18.282;2023-09-07T08:23:32;8.120000;;8.100000;7.710000;;;;;;
43196;SPS30;28816;49.852;18.282;2023-09-07T08:28:35;8.800000;;8.730000;8.370000;;;;;;
43196;SPS30;28816;49.852;18.282;2023-09-07T08:33:37;7.360000;;7.370000;6.940000;;;;;;
43196;SPS30;28816;49.852;18.282;2023-09-07T08:38:39;7.470000;;7.480000;7.070000;;;;;;
43196;SPS30;28816;49.852;18.282;2023-09-07T08:43:42;7.400000;;7.400000;7.040000;;;;;;
43196;SPS30;28816;49.852;18.282;2023-09-07T08:48:45;7.210000;;7.250000;6.840000;;;;;;
43196;SPS30;28816;49.852;18.282;2023-09-07T08:53:47;7.450000;;7.420000;7.070000;;;;;;
43196;SPS30;28816;49.852;18.282;2023-09-07T08:58:49;7.960000;;7.950000;7.520000;;;;;;
43196;SPS30;28816;49.852;18.282;2023-09-07T09:03:51;6.960000;;6.920000;6.560000;;;;;;
43196;SPS30;28816;49.852;18.282;2023-09-07T09:08:53;6.210000;;6.260000;5.840000;;;;;;
43196;SPS30;28816;49.852;18.282;2023-09-07T09:13:56;7.450000;;7.390000;7.070000;;;;;;
43196;SPS30;28816;49.852;18.282;2023-09-07T09:18:58;7.480000;;7.460000;7.080000;;;;;;
43196;SPS30;28816;49.852;18.282;2023-09-07T09:24:01;7.210000;;7.240000;6.810000;;;;;;
43196;SPS30;28816;49.852;18.282;2023-09-07T09:29:08;7.590000;;7.600000;7.150000;;;;;;
43196;SPS30;28816;49.852;18.282;2023-09-07T09:34:09;6.220000;;6.230000;5.900000;;;;;;
43196;SPS30;28816;49.852;18.282;2023-09-07T09:39:12;6.190000;;6.250000;5.780000;;;;;;
43196;SPS30;28816;49.852;18.282;2023-09-07T09:44:22;6.480000;;6.510000;6.130000;;;;;;
43196;SPS30;28816;49.852;18.282;2023-09-07T09:49:28;5.800000;;5.830000;5.450000;;;;;;
43196;SPS30;28816;49.852;18.282;2023-09-07T09:54:31;7.970000;;7.830000;7.680000;;;;;;
43196;SPS30;28816;49.852;18.282;2023-09-07T09:59:34;5.270000;;5.390000;4.890000;;;;;;
43196;SPS30;28816;49.852;18.282;2023-09-07T10:04:36;6.250000;;6.180000;5.930000;;;;;;
43196;SPS30;28816;49.852;18.282;2023-09-07T10:09:39;6.030000;;5.960000;5.780000;;;;;;
43196;SPS30;28816;49.852;18.282;2023-09-07T10:14:43;5.830000;;5.750000;5.570000;;;;;;
43196;SPS30;28816;49.852;18.282;2023-09-07T10:19:45;5.040000;;5.010000;4.780000;;;;;;
43196;SPS30;28816;49.852;18.282;2023-09-07T10:24:47;4.580000;;4.580000;4.340000;;;;;;
43196;SPS30;28816;49.852;18.282;2023-09-07T10:29:57;4.620000;;4.640000;4.360000;;;;;;
43196;SPS30;28816;49.852;18.282;2023-09-07T10:34:59;5.020000;;4.980000;4.780000;;;;;;
43196;SPS30;28816;49.852;18.282;2023-09-07T10:40:11;4.760000;;4.900000;4.450000;;;;;;
43196;SPS30;28816;49.852;18.282;2023-09-07T10:45:18;3.500000;;3.500000;3.330000;;;;;;
43196;SPS30;28816;49.852;18.282;2023-09-07T10:50:21;4.940000;;4.950000;4.680000;;;;;;
43196;SPS30;28816;49.852;18.282;2023-09-07T10:55:23;3.470000;;3.390000;3.350000;;;;;;
43196;SPS30;28816;49.852;18.282;2023-09-07T11:00:26;4.180000;;4.210000;3.930000;;;;;;
43196;SPS30;28816;49.852;18.282;2023-09-07T11:05:29;3.850000;;3.910000;3.630000;;;;;;
43196;SPS30;28816;49.852;18.282;2023-09-07T11:10:31;3.710000;;3.690000;3.510000;;;;;;
43196;SPS30;28816;49.852;18.282;2023-09-07T11:15:33;3.360000;;3.290000;3.240000;;;;;;
43196;SPS30;28816;49.852;18.282;2023-09-07T11:20:35;2.650000;;2.660000;2.490000;;;;;;
43196;SPS30;28816;49.852;18.282;2023-09-07T11:25:38;3.280000;;3.280000;3.100000;;;;;;
43196;SPS30;28816;49.852;18.282;2023-09-07T11:30:40;3.140000;;3.170000;2.940000;;;;;;
43196;SPS30;28816;49.852;18.282;2023-09-07T11:35:48;4.460000;;4.440000;4.220000;;;;;;
43196;SPS30;28816;49.852;18.282;2023-09-07T11:40:51;3.570000;;3.590000;3.340000;;;;;;
43196;SPS30;28816;49.852;18.282;2023-09-07T11:45:54;3.200000;;3.260000;2.990000;;;;;;
43196;SPS30;28816;49.852;18.282;2023-09-07T11:50:56;3.060000;;3.110000;2.860000;;;;;;
43196;SPS30;28816;49.852;18.282;2023-09-07T11:55:58;2.740000;;2.740000;2.590000;;;;;;
43196;SPS30;28816;49.852;18.282;2023-09-07T12:01:01;3.050000;;3.060000;2.860000;;;;;;
43196;SPS30;28816;49.852;18.282;2023-09-07T12:06:03;3.150000;;3.180000;2.960000;;;;;;
43196;SPS30;28816;49.852;18.282;2023-09-07T12:11:06;3.500000;;3.470000;3.310000;;;;;;
43196;SPS30;28816;49.852;18.282;2023-09-07T12:16:08;3.460000;;3.450000;3.270000;;;;;;
43196;SPS30;28816;49.852;18.282;2023-09-07T12:21:10;3.230000;;3.250000;3.060000;;;;;;
43196;SPS30;28816;49.852;18.282;2023-09-07T12:26:13;2.930000;;2.940000;2.780000;;;;;;
43196;SPS30;28816;49.852;18.282;2023-09-07T12:31:15;3.130000;;3.120000;2.990000;;;;;;
43196;SPS30;28816;49.852;18.282;2023-09-07T12:36:18;3.290000;;3.280000;3.130000;;;;;;
43196;SPS30;28816;49.852;18.282;2023-09-07T12:41:20;3.460000;;3.500000;3.260000;;;;;;
43196;SPS30;28816;49.852;18.282;2023-09-07T12:46:22;3.990000;;3.980000;3.820000;;;;;;
43196;SPS30;28816;49.852;18.282;2023-09-07T12:51:25;4.100000;;4.080000;3.910000;;;;;;
43196;SPS30;28816;49.852;18.282;2023-09-07T12:56:27;3.690000;;3.720000;3.480000;;;;;;
43196;SPS30;28816;49.852;18.282;2023-09-07T13:01:30;3.450000;;3.450000;3.270000;;;;;;
43196;SPS30;28816;49.852;18.282;2023-09-07T13:06:32;3.510000;;3.570000;3.280000;;;;;;
43196;SPS30;28816;49.852;18.282;2023-09-07T13:11:34;4.000000;;4.010000;3.760000;;;;;;
43196;SPS30;28816;49.852;18.282;2023-09-07T13:16:37;3.660000;;3.680000;3.440000;;;;;;
43196;SPS30;28816;49.852;18.282;2023-09-07T13:21:39;3.350000;;3.360000;3.160000;;;;;;
43196;SPS30;28816;49.852;18.282;2023-09-07T13:26:41;4.200000;;4.240000;3.920000;;;;;;
43196;SPS30;28816;49.852;18.282;2023-09-07T13:31:46;3.520000;;3.510000;3.340000;;;;;;
43196;SPS30;28816;49.852;18.282;2023-09-07T13:36:48;3.840000;;3.840000;3.640000;;;;;;
43196;SPS30;28816;49.852;18.282;2023-09-07T13:41:51;4.110000;;4.120000;3.870000;;;;;;
43196;SPS30;28816;49.852;18.282;2023-09-07T13:46:53;3.410000;;3.420000;3.220000;;;;;;
43196;SPS30;28816;49.852;18.282;2023-09-07T13:51:55;3.520000;;3.500000;3.330000;;;;;;
43196;SPS30;28816;49.852;18.282;2023-09-07T13:56:58;4.060000;;4.050000;3.860000;;;;;;
43196;SPS30;28816;49.852;18.282;2023-09-07T14:02:00;3.200000;;3.200000;3.020000;;;;;;
43196;SPS30;28816;49.852;18.282;2023-09-07T14:07:03;3.820000;;3.840000;3.600000;;;;;;
43196;SPS30;28816;49.852;18.282;2023-09-07T14:12:05;3.740000;;3.680000;3.610000;;;;;;
43196;SPS30;28816;49.852;18.282;2023-09-07T14:17:07;4.040000;;4.210000;3.710000;;;;;;
43196;SPS30;28816;49.852;18.282;2023-09-07T14:22:10;4.050000;;3.960000;3.910000;;;;;;
43196;SPS30;28816;49.852;18.282;2023-09-07T14:27:12;4.530000;;4.510000;4.270000;;;;;;
43196;SPS30;28816;49.852;18.282;2023-09-07T14:32:14;4.100000;;4.070000;3.920000;;;;;;
43196;SPS30;28816;49.852;18.282;2023-09-07T14:37:16;3.630000;;3.580000;3.470000;;;;;;
43196;SPS30;28816;49.852;18.282;2023-09-07T14:42:19;4.000000;;4.040000;3.800000;;;;;;
43196;SPS30;28816;49.852;18.282;2023-09-07T14:47:21;3.830000;;3.810000;3.650000;;;;;;
43196;SPS30;28816;49.852;18.282;2023-09-07T14:52:23;4.600000;;4.560000;4.400000;;;;;;
43196;SPS30;28816;49.852;18.282;2023-09-07T14:57:26;3.720000;;3.830000;3.450000;;;;;;
43196;SPS30;28816;49.852;18.282;2023-09-07T15:02:28;4.180000;;4.210000;3.960000;;;;;;
43196;SPS30;28816;49.852;18.282;2023-09-07T15:07:31;4.320000;;4.380000;3.990000;;;;;;
43196;SPS30;28816;49.852;18.282;2023-09-07T15:12:33;4.790000;;4.740000;4.570000;;;;;;
43196;SPS30;28816;49.852;18.282;2023-09-07T15:17:35;5.040000;;5.040000;4.760000;;;;;;
43196;SPS30;28816;49.852;18.282;2023-09-07T15:22:38;4.310000;;4.230000;4.140000;;;;;;
43196;SPS30;28816;49.852;18.282;2023-09-07T15:27:40;4.280000;;4.270000;4.080000;;;;;;
43196;SPS30;28816;49.852;18.282;2023-09-07T15:32:43;4.600000;;4.590000;4.340000;;;;;;
43196;SPS30;28816;49.852;18.282;2023-09-07T15:37:45;4.470000;;4.470000;4.180000;;;;;;
43196;SPS30;28816;49.852;18.282;2023-09-07T15:42:47;4.420000;;4.380000;4.230000;;;;;;
43196;SPS30;28816;49.852;18.282;2023-09-07T15:47:50;3.990000;;4.050000;3.710000;;;;;;
43196;SPS30;28816;49.852;18.282;2023-09-07T15:52:54;4.010000;;4.010000;3.810000;;;;;;
43196;SPS30;28816;49.852;18.282;2023-09-07T15:57:56;4.410000;;4.450000;4.140000;;;;;;
43196;SPS30;28816;49.852;18.282;2023-09-07T16:02:59;4.380000;;4.380000;4.140000;;;;;;
43196;SPS30;28816;49.852;18.282;2023-09-07T16:08:01;4.340000;;4.330000;4.140000;;;;;;
43196;SPS30;28816;49.852;18.282;2023-09-07T16:13:04;4.780000;;4.790000;4.490000;;;;;;
43196;SPS30;28816;49.852;18.282;2023-09-07T16:18:06;4.100000;;4.140000;3.830000;;;;;;
43196;SPS30;28816;49.852;18.282;2023-09-07T16:23:08;5.010000;;4.940000;4.780000;;;;;;
43196;SPS30;28816;49.852;18.282;2023-09-07T16:28:11;5.520000;;5.530000;5.190000;;;;;;
43196;SPS30;28816;49.852;18.282;2023-09-07T16:33:13;4.360000;;4.350000;4.150000;;;;;;
43196;SPS30;28816;49.852;18.282;2023-09-07T16:38:16;4.630000;;4.720000;4.310000;;;;;;
43196;SPS30;28816;49.852;18.282;2023-09-07T16:43:18;4.580000;;4.590000;4.310000;;;;;;
43196;SPS30;28816;49.852;18.282;2023-09-07T16:48:20;5.330000;;5.390000;5.000000;;;;;;
43196;SPS30;28816;49.852;18.282;2023-09-07T16:53:23;5.030000;;5.010000;4.760000;;;;;;
43196;SPS30;28816;49.852;18.282;2023-09-07T16:58:25;5.320000;;5.320000;5.040000;;;;;;
43196;SPS30;28816;49.852;18.282;2023-09-07T17:03:28;5.020000;;4.970000;4.780000;;;;;;
43196;SPS30;28816;49.852;18.282;2023-09-07T17:08:30;4.790000;;4.820000;4.500000;;;;;;
43196;SPS30;28816;49.852;18.282;2023-09-07T17:13:32;4.570000;;4.590000;4.280000;;;;;;
43196;SPS30;28816;49.852;18.282;2023-09-07T17:18:34;5.190000;;5.160000;4.950000;;;;;;
43196;SPS30;28816;49.852;18.282;2023-09-07T17:23:37;4.770000;;4.760000;4.530000;;;;;;
43196;SPS30;28816;49.852;18.282;2023-09-07T17:28:39;5.300000;;5.230000;5.070000;;;;;;
43196;SPS30;28816;49.852;18.282;2023-09-07T17:33:41;4.510000;;4.460000;4.280000;;;;;;
43196;SPS30;28816;49.852;18.282;2023-09-07T17:38:45;5.100000;;5.100000;4.780000;;;;;;
43196;SPS30;28816;49.852;18.282;2023-09-07T17:43:48;5.180000;;5.110000;4.940000;;;;;;
43196;SPS30;28816;49.852;18.282;2023-09-07T17:48:49;6.100000;;6.120000;5.760000;;;;;;
43196;SPS30;28816;49.852;18.282;2023-09-07T17:53:52;5.290000;;5.300000;5.010000;;;;;;
43196;SPS30;28816;49.852;18.282;2023-09-07T17:58:54;5.820000;;5.760000;5.510000;;;;;;
43196;SPS30;28816;49.852;18.282;2023-09-07T18:03:57;5.100000;;5.180000;4.730000;;;;;;
43196;SPS30;28816;49.852;18.282;2023-09-07T18:08:59;5.940000;;5.990000;5.580000;;;;;;
43196;SPS30;28816;49.852;18.282;2023-09-07T18:14:01;6.190000;;6.190000;5.840000;;;;;;
43196;SPS30;28816;49.852;18.282;2023-09-07T18:19:04;6.670000;;6.670000;6.250000;;;;;;
43196;SPS30;28816;49.852;18.282;2023-09-07T18:24:06;7.420000;;7.450000;6.990000;;;;;;
43196;SPS30;28816;49.852;18.282;2023-09-07T18:29:09;6.840000;;6.820000;6.490000;;;;;;
43196;SPS30;28816;49.852;18.282;2023-09-07T18:34:11;6.130000;;6.060000;5.790000;;;;;;
43196;SPS30;28816;49.852;18.282;2023-09-07T18:39:13;6.250000;;6.230000;5.810000;;;;;;
43196;SPS30;28816;49.852;18.282;2023-09-07T18:44:16;7.540000;;7.570000;7.110000;;;;;;
43196;SPS30;28816;49.852;18.282;2023-09-07T18:49:18;6.460000;;6.430000;6.120000;;;;;;
43196;SPS30;28816;49.852;18.282;2023-09-07T18:54:20;7.040000;;7.090000;6.620000;;;;;;
43196;SPS30;28816;49.852;18.282;2023-09-07T18:59:23;6.700000;;6.680000;6.340000;;;;;;
43196;SPS30;28816;49.852;18.282;2023-09-07T19:04:25;6.630000;;6.590000;6.330000;;;;;;
43196;SPS30;28816;49.852;18.282;2023-09-07T19:09:28;6.660000;;6.730000;6.190000;;;;;;
43196;SPS30;28816;49.852;18.282;2023-09-07T19:14:30;6.880000;;6.940000;6.480000;;;;;;
43196;SPS30;28816;49.852;18.282;2023-09-07T19:19:32;6.790000;;6.800000;6.410000;;;;;;
43196;SPS30;28816;49.852;18.282;2023-09-07T19:24:35;6.840000;;6.830000;6.490000;;;;;;
43196;SPS30;28816;49.852;18.282;2023-09-07T19:29:37;6.510000;;6.470000;6.180000;;;;;;
43196;SPS30;28816;49.852;18.282;2023-09-07T19:34:40;6.550000;;6.540000;6.170000;;;;;;
43196;SPS30;28816;49.852;18.282;2023-09-07T19:39:42;7.590000;;7.610000;7.120000;;;;;;
43196;SPS30;28816;49.852;18.282;2023-09-07T19:44:44;6.620000;;6.660000;6.240000;;;;;;
43196;SPS30;28816;49.852;18.282;2023-09-07T19:49:47;7.200000;;7.180000;6.820000;;;;;;
43196;SPS30;28816;49.852;18.282;2023-09-07T19:54:50;6.810000;;6.810000;6.420000;;;;;;
43196;SPS30;28816;49.852;18.282;2023-09-07T19:59:53;7.300000;;7.370000;6.840000;;;;;;
43196;SPS30;28816;49.852;18.282;2023-09-07T20:04:55;7.740000;;7.780000;7.210000;;;;;;
43196;SPS30;28816;49.852;18.282;2023-09-07T20:09:58;7.080000;;7.050000;6.730000;;;;;;
43196;SPS30;28816;49.852;18.282;2023-09-07T20:15:00;7.740000;;7.750000;7.320000;;;;;;
43196;SPS30;28816;49.852;18.282;2023-09-07T20:20:03;9.690000;;9.660000;9.020000;;;;;;
43196;SPS30;28816;49.852;18.282;2023-09-07T20:25:06;10.550000;;10.510000;9.950000;;;;;;
43196;SPS30;28816;49.852;18.282;2023-09-07T20:30:08;9.440000;;9.390000;9.020000;;;;;;
43196;SPS30;28816;49.852;18.282;2023-09-07T20:35:11;9.890000;;9.870000;9.130000;;;;;;
43196;SPS30;28816;49.852;18.282;2023-09-07T20:40:13;9.810000;;9.880000;9.200000;;;;;;
43196;SPS30;28816;49.852;18.282;2023-09-07T20:45:15;10.270000;;10.090000;9.420000;;;;;;
43196;SPS30;28816;49.852;18.282;2023-09-07T20:50:18;10.750000;;10.610000;9.850000;;;;;;
43196;SPS30;28816;49.852;18.282;2023-09-07T20:55:20;10.230000;;10.030000;9.500000;;;;;;
43196;SPS30;28816;49.852;18.282;2023-09-07T21:00:23;9.110000;;9.070000;8.570000;;;;;;
43196;SPS30;28816;49.852;18.282;2023-09-07T21:05:25;9.290000;;9.330000;8.730000;;;;;;
43196;SPS30;28816;49.852;18.282;2023-09-07T21:10:28;10.100000;;9.940000;9.410000;;;;;;
43196;SPS30;28816;49.852;18.282;2023-09-07T21:15:30;11.120000;;10.810000;10.250000;;;;;;
43196;SPS30;28816;49.852;18.282;2023-09-07T21:20:32;10.960000;;10.910000;10.390000;;;;;;
43196;SPS30;28816;49.852;18.282;2023-09-07T21:25:34;9.070000;;9.130000;8.420000;;;;;;
43196;SPS30;28816;49.852;18.282;2023-09-07T21:30:36;10.250000;;10.210000;9.520000;;;;;;
43196;SPS30;28816;49.852;18.282;2023-09-07T21:35:38;11.400000;;11.210000;10.540000;;;;;;
43196;SPS30;28816;49.852;18.282;2023-09-07T21:40:40;11.600000;;11.370000;10.650000;;;;;;
43196;SPS30;28816;49.852;18.282;2023-09-07T21:45:43;12.360000;;12.430000;11.600000;;;;;;
43196;SPS30;28816;49.852;18.282;2023-09-07T21:50:45;12.080000;;11.940000;11.360000;;;;;;
43196;SPS30;28816;49.852;18.282;2023-09-07T21:55:48;12.830000;;12.850000;12.110000;;;;;;
43196;SPS30;28816;49.852;18.282;2023-09-07T22:00:50;12.200000;;12.120000;11.410000;;;;;;
43196;SPS30;28816;49.852;18.282;2023-09-07T22:05:53;10.970000;;10.960000;10.390000;;;;;;
43196;SPS30;28816;49.852;18.282;2023-09-07T22:10:55;12.300000;;12.430000;11.550000;;;;;;
43196;SPS30;28816;49.852;18.282;2023-09-07T22:15:58;11.100000;;11.050000;10.530000;;;;;;
43196;SPS30;28816;49.852;18.282;2023-09-07T22:21:00;10.770000;;10.770000;10.020000;;;;;;
43196;SPS30;28816;49.852;18.282;2023-09-07T22:26:03;10.560000;;10.500000;9.960000;;;;;;
43196;SPS30;28816;49.852;18.282;2023-09-07T22:31:05;10.110000;;10.030000;9.650000;;;;;;
43196;SPS30;28816;49.852;18.282;2023-09-07T22:36:07;10.850000;;10.850000;10.250000;;;;;;
43196;SPS30;28816;49.852;18.282;2023-09-07T22:41:09;10.230000;;10.390000;9.540000;;;;;;
43196;SPS30;28816;49.852;18.282;2023-09-07T22:46:12;9.920000;;9.890000;9.250000;;;;;;
43196;SPS30;28816;49.852;18.282;2023-09-07T22:51:14;10.150000;;10.130000;9.600000;;;;;;
43196;SPS30;28816;49.852;18.282;2023-09-07T22:56:16;10.400000;;10.450000;9.760000;;;;;;
43196;SPS30;28816;49.852;18.282;2023-09-07T23:01:19;10.570000;;10.610000;9.940000;;;;;;